Time;durP1;ratioP1;P1;durP2;ratioP2;P2;SDS_P1;SDS_P2;PMS_P1;PMS_P2;Temp;Humidity;BMP_temperature;BMP_pressure;BME280_temperature;BME280_humidity;BME280_pressure;Samples;Min_cycle;Max_cycle;Signal;HPM_P1;HPM_P2
2021/01/05 00:01:20;;;;;;;35.43;16.40;;;;;;;-0.48;100.00;101134.25;5005883;28;20041;-75
2021/01/05 00:03:46;;;;;;;32.60;15.80;;;;;;;-0.48;100.00;101139.44;4999748;28;20209;-74
2021/01/05 00:06:13;;;;;;;35.77;16.27;;;;;;;-0.52;100.00;101140.16;5005657;28;20585;-75
2021/01/05 00:08:39;;;;;;;26.97;14.50;;;;;;;-0.50;100.00;101146.31;4989057;28;20121;-75
2021/01/05 00:11:05;;;;;;;29.10;14.27;;;;;;;-0.51;100.00;101140.19;5005276;28;20038;-75
2021/01/05 00:13:31;;;;;;;29.43;15.97;;;;;;;-0.46;100.00;101140.38;4973109;28;20069;-75
2021/01/05 00:15:57;;;;;;;32.00;16.70;;;;;;;-0.47;100.00;101142.09;4989127;28;20632;-75
2021/01/05 00:18:24;;;;;;;31.40;17.10;;;;;;;-0.39;100.00;101132.81;5003315;28;20056;-74
2021/01/05 00:20:50;;;;;;;26.03;14.77;;;;;;;-0.44;100.00;101134.38;4974475;28;20045;-75
2021/01/05 00:23:16;;;;;;;33.37;16.27;;;;;;;-0.45;100.00;101129.16;4973040;28;20100;-75
2021/01/05 00:25:43;;;;;;;30.80;14.80;;;;;;;-0.46;100.00;101132.56;4992582;28;20438;-75
2021/01/05 00:28:10;;;;;;;33.93;16.07;;;;;;;-0.47;100.00;101138.59;4990687;28;20506;-75
2021/01/05 00:30:36;;;;;;;32.73;16.57;;;;;;;-0.45;100.00;101142.13;4989645;28;20556;-75
2021/01/05 00:33:03;;;;;;;32.87;15.87;;;;;;;-0.48;100.00;101129.94;4986626;28;20096;-75
2021/01/05 00:35:32;;;;;;;26.80;14.73;;;;;;;-0.49;100.00;101127.31;5007617;28;20037;-75
2021/01/05 00:37:59;;;;;;;26.63;14.50;;;;;;;-0.46;100.00;101132.56;4956427;28;21145;-75
2021/01/05 00:40:26;;;;;;;29.83;15.27;;;;;;;-0.47;100.00;101136.00;4989035;28;20050;-75
2021/01/05 00:42:52;;;;;;;31.00;15.43;;;;;;;-0.45;100.00;101142.13;4991716;28;20194;-75
2021/01/05 00:45:25;;;;;;;31.63;17.30;;;;;;;-0.49;100.00;101140.28;4989813;28;20487;-74
2021/01/05 00:47:51;;;;;;;27.03;14.83;;;;;;;-0.49;100.00;101154.13;4985454;28;20121;-75
2021/01/05 00:50:17;;;;;;;32.33;16.33;;;;;;;-0.48;100.00;101145.50;4988483;28;20044;-75
2021/01/05 00:52:43;;;;;;;32.33;15.80;;;;;;;-0.43;100.00;101143.91;5008740;28;20069;-74
2021/01/05 00:55:11;;;;;;;30.07;16.17;;;;;;;-0.47;100.00;101143.78;4989052;28;20099;-75
2021/01/05 00:57:38;;;;;;;31.47;14.77;;;;;;;-0.46;100.00;101154.22;4989687;28;20030;-75
2021/01/05 01:00:08;;;;;;;28.97;14.47;;;;;;;-0.42;100.00;101150.00;4988445;28;20046;-75
2021/01/05 01:02:34;;;;;;;25.73;14.13;;;;;;;-0.46;100.00;101142.97;4972464;28;20042;-75
2021/01/05 01:05:00;;;;;;;30.20;15.23;;;;;;;-0.42;100.00;101143.13;4991319;28;20072;-75
2021/01/05 01:07:26;;;;;;;30.13;14.50;;;;;;;-0.45;100.00;101140.41;5008275;28;20563;-75
2021/01/05 01:09:52;;;;;;;29.53;16.10;;;;;;;-0.46;100.00;101138.66;5011443;28;20630;-75
2021/01/05 01:12:21;;;;;;;30.43;15.13;;;;;;;-0.45;100.00;101150.78;5006059;28;20275;-76
2021/01/05 01:14:50;;;;;;;33.63;16.57;;;;;;;-0.48;100.00;101145.50;4954423;28;20467;-76
2021/01/05 01:17:17;;;;;;;34.77;17.13;;;;;;;-0.45;100.00;101149.91;5007204;28;20487;-79
2021/01/05 01:19:43;;;;;;;27.87;14.93;;;;;;;-0.47;100.00;101144.69;5005078;28;20042;-77
2021/01/05 01:22:10;;;;;;;32.03;15.60;;;;;;;-0.46;100.00;101145.56;4989856;28;20042;-76
2021/01/05 01:24:36;;;;;;;31.47;15.20;;;;;;;-0.44;100.00;101149.06;4975646;28;20450;-77
2021/01/05 01:27:17;;;;;;;28.40;14.40;;;;;;;-0.45;100.00;101144.72;5004201;28;20509;-77
2021/01/05 01:29:43;;;;;;;29.03;13.70;;;;;;;-0.47;100.00;101139.47;4973252;28;20535;-79
2021/01/05 01:32:09;;;;;;;34.63;17.37;;;;;;;-0.42;100.00;101147.41;4973611;28;20041;-80
2021/01/05 01:34:35;;;;;;;30.37;14.73;;;;;;;-0.41;100.00;101146.59;4989615;28;20538;-79
2021/01/05 01:37:08;;;;;;;33.40;17.17;;;;;;;-0.42;100.00;101156.09;5000912;28;20042;-77
2021/01/05 01:39:34;;;;;;;39.70;16.93;;;;;;;-0.42;100.00;101156.09;4988432;28;20038;-77
2021/01/05 01:42:04;;;;;;;31.87;15.70;;;;;;;-0.45;100.00;101155.97;4994043;28;20049;-75
2021/01/05 01:44:36;;;;;;;31.23;15.00;;;;;;;-0.41;100.00;101149.19;4987223;28;20034;-76
2021/01/05 01:47:37;;;;;;;28.30;15.33;;;;;;;-0.44;100.00;101165.53;4973325;28;20561;-77
2021/01/05 01:50:11;;;;;;;31.13;14.40;;;;;;;-0.45;100.00;101160.28;4988659;28;20037;-79
2021/01/05 01:53:09;;;;;;;27.88;14.90;;;;;;;-0.44;100.00;101165.53;4970198;28;20085;-79
2021/01/05 01:56:01;;;;;;;25.87;13.73;;;;;;;-0.45;100.00;101158.56;4966808;28;20192;-78
2021/01/05 01:58:44;;;;;;;27.47;14.70;;;;;;;-0.45;100.00;101155.09;4987381;28;20507;-77
2021/01/05 02:01:29;;;;;;;25.13;13.30;;;;;;;-0.44;100.00;101152.53;4971689;28;20061;-76
2021/01/05 02:04:14;;;;;;;25.80;12.97;;;;;;;-0.40;100.00;101156.13;4971842;28;20042;-78
2021/01/05 02:06:45;;;;;;;27.83;13.82;;;;;;;-0.43;100.00;101145.63;4989973;28;20061;-76
2021/01/05 02:09:17;;;;;;;28.67;13.87;;;;;;;-0.45;100.00;101148.19;4995046;28;20037;-77
2021/01/05 02:12:14;;;;;;;27.47;13.13;;;;;;;-0.45;100.00;101148.19;4996780;28;20049;-76
2021/01/05 02:15:09;;;;;;;25.17;13.43;;;;;;;-0.44;100.00;101143.88;4985715;28;20446;-76
2021/01/05 02:18:03;;;;;;;24.38;13.60;;;;;;;-0.43;100.00;101145.63;4989284;28;20049;-77
2021/01/05 02:20:41;;;;;;;24.52;13.13;;;;;;;-0.42;100.00;101145.72;5001352;28;20092;-76
2021/01/05 02:23:23;;;;;;;28.07;13.83;;;;;;;-0.43;100.00;101151.72;5004110;28;20034;-76
2021/01/05 02:25:52;;;;;;;24.20;13.80;;;;;;;-0.46;100.00;101148.16;4983518;28;20082;-76
2021/01/05 02:28:22;;;;;;;24.90;13.80;;;;;;;-0.44;100.00;101149.06;4989119;28;20061;-77
2021/01/05 02:31:00;;;;;;;32.97;15.77;;;;;;;-0.35;100.00;101151.94;4989145;28;20045;-79
2021/01/05 02:33:47;;;;;;;25.40;13.17;;;;;;;-0.40;100.00;101149.22;4989239;28;20061;-77
2021/01/05 02:36:31;;;;;;;28.07;13.43;;;;;;;-0.40;100.00;101144.03;5002990;28;20038;-76
2021/01/05 02:39:20;;;;;;;26.25;14.00;;;;;;;-0.39;100.00;101142.31;5002450;28;20030;-76
2021/01/05 02:42:16;;;;;;;26.27;12.83;;;;;;;-0.42;100.00;101139.59;4986135;28;20083;-77
2021/01/05 02:44:58;;;;;;;26.40;13.20;;;;;;;-0.40;100.00;101128.47;4993082;28;20034;-76
2021/01/05 02:47:38;;;;;;;27.02;13.85;;;;;;;-0.42;100.00;101134.41;4987273;28;20052;-76
2021/01/05 02:50:29;;;;;;;25.50;13.20;;;;;;;-0.42;100.00;101129.22;5003380;28;20030;-77
2021/01/05 02:53:32;;;;;;;25.33;12.33;;;;;;;-0.42;100.00;101130.13;4988385;28;20100;-77
2021/01/05 02:56:36;;;;;;;24.37;12.57;;;;;;;-0.41;100.00;101133.63;4999537;28;20751;-79
2021/01/05 02:59:23;;;;;;;27.80;12.97;;;;;;;-0.40;100.00;101135.38;5009760;28;20125;-76
2021/01/05 03:02:25;;;;;;;24.88;12.65;;;;;;;-0.41;100.00;101136.22;4998664;28;20462;-76
2021/01/05 03:04:51;;;;;;;23.77;12.77;;;;;;;-0.43;100.00;101132.66;5005366;28;20072;-78
2021/01/05 03:07:25;;;;;;;23.50;13.03;;;;;;;-0.43;100.00;101130.06;4988586;28;20038;-76
2021/01/05 03:10:25;;;;;;;25.83;13.15;;;;;;;-0.44;100.00;101134.38;4990235;28;20057;-77
2021/01/05 03:13:10;;;;;;;23.57;11.27;;;;;;;-0.44;100.00;101128.31;5008852;28;20096;-80
2021/01/05 03:15:42;;;;;;;23.37;11.90;;;;;;;-0.38;100.00;101133.69;4990047;28;20034;-75
2021/01/05 03:18:26;;;;;;;28.23;14.33;;;;;;;-0.41;100.00;101133.63;5006117;28;20033;-76
2021/01/05 03:20:59;;;;;;;24.10;13.48;;;;;;;-0.40;100.00;101125.00;4987068;28;20085;-78
2021/01/05 03:23:29;;;;;;;26.43;14.57;;;;;;;-0.42;100.00;101135.34;4993791;28;20084;-78
2021/01/05 03:26:00;;;;;;;27.40;13.93;;;;;;;-0.42;100.00;101129.22;5006726;28;20499;-77
2021/01/05 03:28:28;;;;;;;25.80;12.33;;;;;;;-0.42;100.00;101130.13;5007495;28;20034;-77
2021/01/05 03:31:21;;;;;;;29.73;16.10;;;;;;;-0.42;100.00;101134.41;4977008;28;20038;-77
2021/01/05 03:33:50;;;;;;;27.23;13.40;;;;;;;-0.42;100.00;101132.72;5008128;28;20041;-77
2021/01/05 03:36:16;;;;;;;28.30;15.10;;;;;;;-0.41;100.00;101133.63;4992487;28;20046;-77
2021/01/05 03:38:42;;;;;;;30.47;14.87;;;;;;;-0.42;100.00;101126.63;5003621;28;20038;-77
2021/01/05 03:41:08;;;;;;;28.50;14.80;;;;;;;-0.41;100.00;101120.63;4977149;28;20058;-77
2021/01/05 03:43:34;;;;;;;27.60;14.30;;;;;;;-0.39;100.00;101119.84;4995258;28;20124;-77
2021/01/05 03:46:01;;;;;;;30.53;14.27;;;;;;;-0.39;100.00;101126.75;4993892;28;20042;-77
2021/01/05 03:48:27;;;;;;;25.93;12.87;;;;;;;-0.40;100.00;101122.41;5009128;28;20135;-77
2021/01/05 03:50:53;;;;;;;30.73;14.13;;;;;;;-0.43;100.00;101123.16;5010710;28;20067;-77
2021/01/05 03:53:19;;;;;;;29.70;14.03;;;;;;;-0.40;100.00;101127.59;4994720;28;20092;-77
2021/01/05 03:55:45;;;;;;;28.27;15.27;;;;;;;-0.41;100.00;101136.22;5010770;28;20057;-78
2021/01/05 03:58:11;;;;;;;32.10;14.03;;;;;;;-0.42;100.00;101132.72;4992540;28;20973;-77
2021/01/05 04:00:37;;;;;;;33.23;15.70;;;;;;;-0.38;100.00;101134.56;5007846;28;20096;-77
2021/01/05 04:03:03;;;;;;;27.43;13.37;;;;;;;-0.41;100.00;101139.69;4993629;28;20416;-77
2021/01/05 04:05:30;;;;;;;32.20;13.53;;;;;;;-0.40;100.00;101130.19;4993666;28;20509;-77
2021/01/05 04:07:56;;;;;;;24.63;12.43;;;;;;;-0.42;100.00;101132.72;4996928;28;20030;-77
2021/01/05 04:10:23;;;;;;;31.00;15.57;;;;;;;-0.37;100.00;101128.56;4980131;28;20578;-77
2021/01/05 04:12:52;;;;;;;27.93;14.10;;;;;;;-0.42;100.00;101130.13;5011781;28;20057;-77
2021/01/05 04:15:21;;;;;;;31.87;14.23;;;;;;;-0.39;100.00;101130.22;4977556;28;20064;-77
2021/01/05 04:17:48;;;;;;;35.10;18.60;;;;;;;-0.34;100.00;101127.75;5009245;28;20128;-77
2021/01/05 04:20:14;;;;;;;32.53;14.50;;;;;;;-0.40;100.00;101127.59;5010553;28;20037;-77
2021/01/05 04:22:40;;;;;;;37.60;16.60;;;;;;;-0.37;100.00;101127.66;4994253;28;20073;-76
2021/01/05 04:25:07;;;;;;;32.60;14.93;;;;;;;-0.41;100.00;101118.91;4980518;28;20099;-77
2021/01/05 04:27:33;;;;;;;33.67;15.70;;;;;;;-0.39;100.00;101124.16;5008067;28;20403;-77
2021/01/05 04:29:59;;;;;;;33.03;15.97;;;;;;;-0.34;100.00;101132.94;4982267;28;20046;-76
2021/01/05 04:32:26;;;;;;;35.73;16.77;;;;;;;-0.37;100.00;101131.16;4990453;28;20033;-77
2021/01/05 04:34:52;;;;;;;43.03;18.13;;;;;;;-0.37;100.00;101132.84;4961833;28;20037;-76
2021/01/05 04:37:18;;;;;;;36.70;17.47;;;;;;;-0.38;100.00;101128.50;4995427;28;20557;-76
2021/01/05 04:39:44;;;;;;;34.00;16.73;;;;;;;-0.37;100.00;101125.94;5010426;28;20085;-76
2021/01/05 04:42:13;;;;;;;37.77;16.50;;;;;;;-0.34;100.00;101123.47;4995213;28;20037;-76
2021/01/05 04:44:55;;;;;;;40.43;18.70;;;;;;;-0.36;100.00;101122.53;4974446;28;20076;-77
2021/01/05 04:47:42;;;;;;;32.77;16.80;;;;;;;-0.36;100.00;101119.03;4993184;28;20133;-76
2021/01/05 04:50:11;;;;;;;35.20;16.17;;;;;;;-0.34;100.00;101112.19;5006239;28;20034;-77
2021/01/05 04:53:01;;;;;;;39.57;17.07;;;;;;;-0.39;100.00;101109.47;5008867;28;20069;-77
2021/01/05 04:55:41;;;;;;;34.87;15.87;;;;;;;-0.40;100.00;101117.19;4989987;28;20038;-77
2021/01/05 04:58:19;;;;;;;31.00;14.67;;;;;;;-0.40;100.00;101109.41;4975166;28;20069;-77
2021/01/05 05:00:46;;;;;;;37.73;16.40;;;;;;;-0.38;100.00;101106.03;4979594;28;20096;-76
2021/01/05 05:03:42;;;;;;;38.13;16.67;;;;;;;-0.32;100.00;101108.81;5011248;28;20037;-77
2021/01/05 05:06:26;;;;;;;35.17;15.40;;;;;;;-0.32;100.00;101113.13;4981861;28;20525;-77
2021/01/05 05:09:03;;;;;;;31.47;16.77;;;;;;;-0.36;100.00;101121.63;5007104;28;20046;-77
2021/01/05 05:11:48;;;;;;;33.03;14.77;;;;;;;-0.37;100.00;101117.28;4996234;28;20407;-77
2021/01/05 05:14:38;;;;;;;34.67;15.87;;;;;;;-0.33;100.00;101124.34;5009922;28;20121;-77
2021/01/05 05:17:27;;;;;;;35.07;15.40;;;;;;;-0.38;100.00;101113.81;4984972;28;20038;-77
2021/01/05 05:20:02;;;;;;;36.93;17.40;;;;;;;-0.36;100.00;101116.44;4989657;28;20134;-77
2021/01/05 05:22:53;;;;;;;43.53;18.97;;;;;;;-0.36;100.00;101119.03;5007623;28;20030;-77
2021/01/05 05:25:24;;;;;;;32.33;16.03;;;;;;;-0.40;100.00;101109.41;5001491;28;20057;-76
2021/01/05 05:27:55;;;;;;;36.93;16.30;;;;;;;-0.34;100.00;101120.88;4991851;28;20042;-77
2021/01/05 05:30:29;;;;;;;35.23;15.67;;;;;;;-0.37;100.00;101114.69;4984539;28;20078;-77
2021/01/05 05:32:56;;;;;;;33.83;15.97;;;;;;;-0.35;100.00;101113.00;4988999;28;20038;-77
2021/01/05 05:35:38;;;;;;;37.10;16.33;;;;;;;-0.37;100.00;101105.19;5000138;28;20458;-77
2021/01/05 05:38:08;;;;;;;30.10;14.07;;;;;;;-0.35;100.00;101108.69;4993834;28;20030;-77
2021/01/05 05:40:49;;;;;;;33.37;15.20;;;;;;;-0.37;100.00;101097.41;4980707;28;20064;-77
2021/01/05 05:43:29;;;;;;;31.77;15.07;;;;;;;-0.34;100.00;101107.00;5006925;28;20048;-77
2021/01/05 05:46:00;;;;;;;32.53;14.13;;;;;;;-0.35;100.00;101110.41;5009508;28;20069;-76
2021/01/05 05:48:34;;;;;;;34.47;13.80;;;;;;;-0.31;100.00;101117.47;4995071;28;20038;-77
2021/01/05 05:51:29;;;;;;;37.43;15.00;;;;;;;-0.36;100.00;101111.25;4974405;28;20042;-76
2021/01/05 05:54:00;;;;;;;36.35;17.67;;;;;;;-0.36;100.00;101111.25;4989939;28;20065;-77
2021/01/05 05:56:49;;;;;;;29.70;14.83;;;;;;;-0.39;100.00;101106.88;4993582;28;20394;-76
2021/01/05 05:59:16;;;;;;;27.70;13.57;;;;;;;-0.36;100.00;101099.16;4968228;28;20057;-77
2021/01/05 06:01:42;;;;;;;33.40;14.37;;;;;;;-0.37;100.00;101105.19;4973973;28;20108;-77
2021/01/05 06:04:08;;;;;;;33.43;16.03;;;;;;;-0.36;100.00;101106.06;5006899;28;20041;-76
2021/01/05 06:06:36;;;;;;;31.00;14.77;;;;;;;-0.36;100.00;101098.28;4975157;28;20084;-76
2021/01/05 06:09:03;;;;;;;29.27;14.10;;;;;;;-0.38;100.00;101097.34;5009402;28;20041;-77
2021/01/05 06:11:33;;;;;;;26.03;12.87;;;;;;;-0.37;100.00;101107.78;5004754;28;20054;-76
2021/01/05 06:14:03;;;;;;;30.30;13.87;;;;;;;-0.37;100.00;101106.91;5006810;28;20045;-75
2021/01/05 06:16:30;;;;;;;30.57;15.73;;;;;;;-0.32;100.00;101115.72;5014142;28;20042;-74
2021/01/05 06:18:56;;;;;;;32.93;16.13;;;;;;;-0.36;100.00;101108.66;5003401;28;20045;-75
2021/01/05 06:21:23;;;;;;;37.93;16.87;;;;;;;-0.35;100.00;101107.81;5008788;28;20042;-77
2021/01/05 06:23:49;;;;;;;30.17;13.77;;;;;;;-0.37;100.00;101109.50;4977195;28;20625;-76
2021/01/05 06:26:18;;;;;;;29.43;13.47;;;;;;;-0.37;100.00;101110.38;4990732;28;20037;-76
2021/01/05 06:28:47;;;;;;;33.43;15.57;;;;;;;-0.28;100.00;101114.97;4993425;28;20050;-76
2021/01/05 06:31:13;;;;;;;31.60;15.33;;;;;;;-0.34;100.00;101119.97;4982754;28;20462;-75
2021/01/05 06:33:39;;;;;;;27.70;13.03;;;;;;;-0.32;100.00;101123.50;4974505;28;20088;-75
2021/01/05 06:36:06;;;;;;;31.93;14.30;;;;;;;-0.34;100.00;101123.47;5006778;28;20561;-76
2021/01/05 06:38:33;;;;;;;35.53;14.40;;;;;;;-0.35;100.00;101120.81;4979256;28;20658;-75
2021/01/05 06:40:59;;;;;;;28.73;14.23;;;;;;;-0.38;100.00;101125.91;5007957;28;20561;-75
2021/01/05 06:43:29;;;;;;;28.83;13.70;;;;;;;-0.25;100.00;101133.25;4993304;28;20042;-76
2021/01/05 06:45:55;;;;;;;31.33;14.50;;;;;;;-0.34;100.00;101130.34;4974270;28;20049;-76
2021/01/05 06:48:21;;;;;;;33.07;14.33;;;;;;;-0.37;100.00;101128.56;4967822;28;20046;-76
2021/01/05 06:50:47;;;;;;;32.90;14.33;;;;;;;-0.37;100.00;101133.75;4989872;28;20501;-75
2021/01/05 06:53:13;;;;;;;31.33;14.70;;;;;;;-0.33;100.00;101130.44;4971891;28;20042;-74
2021/01/05 06:55:39;;;;;;;35.17;15.60;;;;;;;-0.36;100.00;101130.31;4990377;28;20049;-75
2021/01/05 06:58:06;;;;;;;30.57;14.07;;;;;;;-0.37;100.00;101132.84;4990785;28;20038;-76
2021/01/05 07:00:32;;;;;;;27.67;14.17;;;;;;;-0.36;100.00;101135.50;5008762;28;20192;-76
2021/01/05 07:02:59;;;;;;;32.07;14.57;;;;;;;-0.37;100.00;101131.16;4993935;28;20054;-76
2021/01/05 07:05:25;;;;;;;30.50;14.43;;;;;;;-0.37;100.00;101138.94;5010745;28;20037;-76
2021/01/05 07:07:52;;;;;;;26.30;13.10;;;;;;;-0.38;100.00;101133.69;4993393;28;20074;-76
2021/01/05 07:10:20;;;;;;;31.57;14.37;;;;;;;-0.35;100.00;101132.06;4980215;28;20096;-75
2021/01/05 07:12:47;;;;;;;34.77;16.53;;;;;;;-0.37;100.00;101131.16;4978392;28;20128;-76
2021/01/05 07:15:15;;;;;;;31.07;15.97;;;;;;;-0.35;100.00;101132.06;4976667;28;20077;-75
2021/01/05 07:17:41;;;;;;;28.30;13.13;;;;;;;-0.35;100.00;101137.25;4992495;28;20119;-76
2021/01/05 07:20:09;;;;;;;29.57;13.67;;;;;;;-0.35;100.00;101142.44;4993006;28;20092;-76
2021/01/05 07:22:35;;;;;;;28.57;12.90;;;;;;;-0.36;100.00;101138.09;4960496;28;20050;-76
2021/01/05 07:25:03;;;;;;;39.27;17.20;;;;;;;-0.34;100.00;101139.06;4989192;28;20030;-75
2021/01/05 07:27:29;;;;;;;40.00;16.63;;;;;;;-0.34;100.00;101131.25;4974569;28;20035;-75
2021/01/05 07:29:55;;;;;;;34.97;16.93;;;;;;;-0.34;100.00;101131.25;4992575;28;20030;-76
2021/01/05 07:32:22;;;;;;;36.33;17.17;;;;;;;-0.37;100.00;101133.75;4975482;28;20052;-75
2021/01/05 07:34:48;;;;;;;38.97;16.50;;;;;;;-0.36;100.00;101134.63;4973360;28;20072;-75
2021/01/05 07:37:19;;;;;;;42.90;18.43;;;;;;;-0.32;100.00;101133.91;4994714;28;20038;-75
2021/01/05 07:39:45;;;;;;;53.10;26.33;;;;;;;-0.33;100.00;101133.03;4990444;28;20060;-75
2021/01/05 07:42:19;;;;;;;41.23;18.90;;;;;;;-0.28;100.00;101138.34;4980520;28;20077;-75
2021/01/05 07:44:47;;;;;;;41.00;18.08;;;;;;;-0.31;100.00;101143.44;4993702;28;20116;-76
2021/01/05 07:47:15;;;;;;;50.10;20.97;;;;;;;-0.32;100.00;101141.69;4993758;28;20172;-76
2021/01/05 07:49:41;;;;;;;54.50;21.47;;;;;;;-0.29;100.00;101142.66;4996708;28;20038;-76
2021/01/05 07:52:35;;;;;;;60.93;23.23;;;;;;;-0.33;100.00;101140.81;4993332;28;20038;-75
2021/01/05 07:55:05;;;;;;;46.47;19.43;;;;;;;-0.32;100.00;101139.09;4993501;28;20042;-76
2021/01/05 07:57:31;;;;;;;45.70;19.10;;;;;;;-0.33;100.00;101135.63;4988180;28;20065;-76
2021/01/05 07:59:57;;;;;;;54.37;24.73;;;;;;;-0.30;100.00;101145.22;4982940;28;20164;-75
2021/01/05 08:02:23;;;;;;;47.90;20.07;;;;;;;-0.30;100.00;101145.22;4993189;28;20030;-75
2021/01/05 08:04:49;;;;;;;43.00;21.57;;;;;;;-0.30;100.00;101134.81;4992151;28;20053;-77
2021/01/05 08:07:15;;;;;;;52.93;20.00;;;;;;;-0.30;100.00;101145.22;4974313;28;20046;-77
2021/01/05 08:09:42;;;;;;;38.93;18.50;;;;;;;-0.25;100.00;101134.94;4990595;28;20625;-76
2021/01/05 08:12:16;;;;;;;55.20;19.93;;;;;;;-0.24;100.00;101139.34;4991537;28;20527;-77
2021/01/05 08:14:43;;;;;;;42.27;18.40;;;;;;;-0.26;100.00;101139.25;4975705;28;20045;-77
2021/01/05 08:17:09;;;;;;;36.77;18.60;;;;;;;-0.25;100.00;101140.13;5003355;28;20066;-76
2021/01/05 08:19:35;;;;;;;34.50;15.40;;;;;;;-0.25;100.00;101138.44;5005697;28;20099;-77
2021/01/05 08:22:02;;;;;;;44.43;19.27;;;;;;;-0.24;100.00;101135.03;4989928;28;20450;-77
2021/01/05 08:24:29;;;;;;;47.60;18.57;;;;;;;-0.22;100.00;101137.66;4988407;28;20104;-77
2021/01/05 08:26:55;;;;;;;41.03;18.97;;;;;;;-0.23;100.00;101136.78;5007931;28;20042;-77
2021/01/05 08:29:21;;;;;;;36.20;16.70;;;;;;;-0.23;100.00;101131.59;5009287;28;20121;-77
2021/01/05 08:31:48;;;;;;;39.40;18.47;;;;;;;-0.22;100.00;101133.34;4993619;28;20050;-77
2021/01/05 08:34:15;;;;;;;47.97;19.80;;;;;;;-0.23;100.00;101134.19;4994363;28;20522;-77
2021/01/05 08:36:41;;;;;;;43.20;18.97;;;;;;;-0.21;100.00;101140.28;4994872;28;20069;-77
2021/01/05 08:39:11;;;;;;;39.20;17.50;;;;;;;-0.19;100.00;101137.75;4993032;28;20061;-77
2021/01/05 08:41:37;;;;;;;42.63;17.80;;;;;;;-0.19;100.00;101123.03;4998097;28;20458;-77
2021/01/05 08:44:03;;;;;;;34.03;15.70;;;;;;;-0.17;100.00;101131.78;5006585;28;20038;-77
2021/01/05 08:46:29;;;;;;;31.20;15.57;;;;;;;-0.16;100.00;101132.66;4996268;28;20077;-77
2021/01/05 08:48:56;;;;;;;48.20;20.40;;;;;;;-0.16;100.00;101120.56;5006188;28;20388;-78
2021/01/05 08:51:23;;;;;;;38.70;16.80;;;;;;;-0.16;100.00;101125.75;4990443;28;20050;-77
2021/01/05 08:53:50;;;;;;;41.50;21.23;;;;;;;-0.12;100.00;101126.72;4971683;28;20679;-77
2021/01/05 08:56:21;;;;;;;41.60;20.57;;;;;;;-0.13;100.00;101132.75;4989962;28;20033;-77
2021/01/05 08:58:47;;;;;;;39.23;18.37;;;;;;;-0.11;100.00;101136.25;4990798;28;20646;-77
2021/01/05 09:01:13;;;;;;;36.40;16.70;;;;;;;-0.13;100.00;101135.34;5006672;28;20507;-77
2021/01/05 09:03:39;;;;;;;33.67;16.27;;;;;;;-0.14;100.00;101131.84;4990795;28;20123;-77
2021/01/05 09:06:07;;;;;;;41.93;18.33;;;;;;;-0.09;100.00;101129.38;4974746;28;20052;-77
2021/01/05 09:08:35;;;;;;;40.23;19.77;;;;;;;-0.12;100.00;101135.38;4998998;28;20121;-77
2021/01/05 09:11:03;;;;;;;41.13;18.90;;;;;;;-0.12;100.00;101135.38;4989580;28;20069;-77
2021/01/05 09:13:33;;;;;;;43.97;19.40;;;;;;;-0.13;100.00;101127.53;4992131;28;20046;-77
2021/01/05 09:15:59;;;;;;;35.80;16.90;;;;;;;-0.10;100.00;101123.31;4990533;28;20045;-77
2021/01/05 09:18:25;;;;;;;38.53;17.30;;;;;;;-0.09;100.00;101124.19;4965564;28;20045;-77
2021/01/05 09:20:54;;;;;;;40.30;18.57;;;;;;;-0.09;100.00;101129.38;5007546;28;20038;-78
2021/01/05 09:23:24;;;;;;;38.70;16.17;;;;;;;-0.08;100.00;101131.19;4988210;28;20045;-77
2021/01/05 09:25:54;;;;;;;35.63;16.70;;;;;;;-0.09;100.00;101125.06;4969294;28;20100;-77
2021/01/05 09:28:22;;;;;;;35.70;16.63;;;;;;;0.04;100.00;101130.66;4995486;22;20065;31
2021/01/05 09:30:49;;;;;;;41.70;18.17;;;;;;;-0.06;100.00;101119.09;4982132;28;20469;-75
2021/01/05 09:33:16;;;;;;;37.07;17.50;;;;;;;-0.09;100.00;101119.88;4981369;28;20097;-74
2021/01/05 09:35:43;;;;;;;30.00;14.60;;;;;;;-0.07;100.00;101118.22;4969862;28;20129;-75
2021/01/05 09:38:09;;;;;;;32.93;15.83;;;;;;;-0.03;100.00;101120.06;4983769;28;20046;-74
2021/01/05 09:40:39;;;;;;;35.13;15.27;;;;;;;-0.03;100.00;101117.47;4949161;28;20381;-75
2021/01/05 09:43:10;;;;;;;29.37;14.80;;;;;;;-0.02;100.00;101119.22;4961326;28;20512;-74
2021/01/05 09:45:37;;;;;;;30.40;15.30;;;;;;;0.01;100.00;101109.78;4959798;28;20035;-75
2021/01/05 09:48:11;;;;;;;32.20;14.90;;;;;;;0.02;100.00;101112.44;4947961;28;20053;-74
2021/01/05 09:50:39;;;;;;;30.83;13.38;;;;;;;0.08;100.00;101116.91;4964575;28;20102;-74
2021/01/05 09:53:05;;;;;;;27.40;13.87;;;;;;;0.05;100.00;101117.69;4948909;28;20508;-74
2021/01/05 09:55:32;;;;;;;27.60;13.47;;;;;;;0.07;100.00;101115.13;4982466;28;20046;-74
2021/01/05 09:57:58;;;;;;;24.93;13.33;;;;;;;0.06;100.00;101114.25;4967098;28;20058;-74
2021/01/05 10:00:25;;;;;;;22.47;11.87;;;;;;;0.08;100.00;101111.69;4984233;28;20690;-74
2021/01/05 10:02:51;;;;;;;28.40;13.13;;;;;;;0.11;100.00;101107.50;4971087;28;20051;-75
2021/01/05 10:05:18;;;;;;;24.10;12.27;;;;;;;0.09;100.00;101103.97;4979153;28;20135;-74
2021/01/05 10:07:44;;;;;;;27.10;11.77;;;;;;;0.09;100.00;101106.56;4978182;28;20132;-74
2021/01/05 10:10:20;;;;;;;20.90;11.70;;;;;;;0.11;100.00;101101.41;4951427;28;20042;-74
2021/01/05 10:12:46;;;;;;;23.60;11.97;;;;;;;0.10;100.00;101097.94;4967037;28;20046;-74
2021/01/05 10:15:14;;;;;;;23.07;10.77;;;;;;;0.10;100.00;101104.84;4966141;28;20108;-74
2021/01/05 10:17:40;;;;;;;21.93;11.90;;;;;;;0.13;100.00;101104.94;4982821;28;20524;-74
2021/01/05 10:20:09;;;;;;;23.33;12.27;;;;;;;0.14;100.00;101106.69;4988733;28;20434;-74
2021/01/05 10:22:35;;;;;;;25.63;12.70;;;;;;;0.20;100.00;101097.38;4966077;28;20046;-75
2021/01/05 10:25:06;;;;;;;24.73;11.47;;;;;;;0.17;100.00;101098.97;4980848;28;20101;-74
2021/01/05 10:27:32;;;;;;;23.40;11.50;;;;;;;0.19;100.00;101099.91;4974683;28;20042;-74
2021/01/05 10:29:59;;;;;;;23.00;10.40;;;;;;;0.20;100.00;101097.38;4957970;28;20072;-74
2021/01/05 10:32:26;;;;;;;18.90;10.77;;;;;;;0.21;100.00;101095.63;4976897;28;20041;-74
2021/01/05 10:34:52;;;;;;;19.23;10.67;;;;;;;0.21;100.00;101098.25;4983892;28;20661;-75
2021/01/05 10:37:18;;;;;;;22.37;10.80;;;;;;;0.22;100.00;101097.41;4968725;28;20034;-74
2021/01/05 10:40:03;;;;;;;19.13;9.10;;;;;;;0.24;100.00;101094.00;4973886;28;20053;-74
2021/01/05 10:42:29;;;;;;;22.43;10.80;;;;;;;0.26;100.00;101087.16;4969525;28;20038;-74
2021/01/05 10:44:55;;;;;;;20.83;10.20;;;;;;;0.28;100.00;101098.47;4969376;28;20534;-74
2021/01/05 10:47:22;;;;;;;21.97;11.40;;;;;;;0.32;100.00;101095.94;4968497;28;20050;-74
2021/01/05 10:49:48;;;;;;;25.83;12.90;;;;;;;0.28;100.00;101092.38;4983568;28;20070;-74
2021/01/05 10:52:16;;;;;;;48.33;22.90;;;;;;;0.31;100.00;101091.56;4972885;28;20791;-74
2021/01/05 10:54:43;;;;;;;26.37;14.53;;;;;;;0.33;100.00;101087.28;4958492;28;20049;-74
2021/01/05 10:57:10;;;;;;;24.17;13.90;;;;;;;0.34;100.00;101086.44;4981050;28;20057;-74
2021/01/05 10:59:39;;;;;;;22.23;11.37;;;;;;;0.35;100.00;101088.25;4965339;28;20057;-74
2021/01/05 11:02:08;;;;;;;70.93;26.80;;;;;;;0.39;100.00;101082.28;4969855;28;20047;-74
2021/01/05 11:04:35;;;;;;;41.17;18.77;;;;;;;0.36;100.00;101082.19;4965356;28;20042;-74
2021/01/05 11:07:07;;;;;;;26.10;13.40;;;;;;;0.36;100.00;101083.09;4960163;28;20043;-74
2021/01/05 11:09:33;;;;;;;24.63;12.40;;;;;;;0.40;100.00;101079.72;4953183;28;20050;-73
2021/01/05 11:12:10;;;;;;;29.10;14.20;;;;;;;0.35;100.00;101073.53;4967819;28;20105;-74
2021/01/05 11:14:41;;;;;;;25.33;14.07;;;;;;;0.39;100.00;101082.28;4978247;28;20118;-74
2021/01/05 11:17:08;;;;;;;24.40;11.60;;;;;;;0.39;100.00;101083.16;4982409;28;20039;-74
2021/01/05 11:19:35;;;;;;;27.03;14.23;;;;;;;0.39;100.00;101071.88;4966585;28;20042;-74